createdAt,value
2019-01-29T00:01:41.233Z,4.08
2019-01-29T00:06:42.740Z,4.30
2019-01-29T00:11:44.015Z,3.20
2019-01-29T00:16:45.412Z,2.52
2019-01-29T00:21:46.836Z,3.60
2019-01-29T00:26:48.179Z,3.52
2019-01-29T00:32:08.256Z,2.65
2019-01-29T00:37:09.856Z,2.45
2019-01-29T00:42:11.193Z,4.05
2019-01-29T00:47:12.575Z,3.83
2019-01-29T00:52:13.916Z,3.00
2019-01-29T00:57:15.305Z,3.58
2019-01-29T01:02:16.688Z,3.70
2019-01-29T01:07:18.009Z,2.58
2019-01-29T01:12:19.407Z,2.47
2019-01-29T01:17:20.717Z,2.52
2019-01-29T01:22:22.022Z,2.58
2019-01-29T01:27:23.366Z,1.90
2019-01-29T01:32:24.767Z,2.00
2019-01-29T01:37:27.742Z,1.62
2019-01-29T01:42:29.108Z,1.10
2019-01-29T01:47:30.844Z,1.15
2019-01-29T01:52:32.163Z,1.40
2019-01-29T01:57:33.601Z,1.55
2019-01-29T02:02:35.160Z,1.42
2019-01-29T02:07:36.486Z,1.77
2019-01-29T02:12:37.933Z,2.50
2019-01-29T02:17:39.242Z,3.37
2019-01-29T02:22:40.795Z,3.77
2019-01-29T02:27:42.450Z,4.80
2019-01-29T02:32:43.735Z,4.97
2019-01-29T02:37:45.267Z,3.87
2019-01-29T02:42:46.557Z,3.75
2019-01-29T02:47:48.086Z,2.58
2019-01-29T02:52:49.400Z,4.22
2019-01-29T02:57:51.199Z,3.20
2019-01-29T03:02:52.527Z,3.80
2019-01-29T03:07:53.958Z,3.30
2019-01-29T03:12:55.296Z,3.42
2019-01-29T03:17:56.615Z,3.65
2019-01-29T03:22:57.940Z,3.42
2019-01-29T03:27:59.959Z,4.12
2019-01-29T03:33:01.253Z,4.67
2019-01-29T03:38:02.706Z,4.42
2019-01-29T03:43:04.004Z,5.70
2019-01-29T03:48:05.403Z,6.30
2019-01-29T03:53:06.747Z,7.35
2019-01-29T03:58:08.190Z,7.60
2019-01-29T04:03:09.449Z,9.80
2019-01-29T04:08:10.772Z,10.45
2019-01-29T04:13:12.118Z,10.50
2019-01-29T04:18:13.443Z,13.95
2019-01-29T04:23:14.884Z,17.90
2019-01-29T04:28:16.278Z,14.28
2019-01-29T04:33:17.718Z,18.90
2019-01-29T04:38:19.009Z,18.32
2019-01-29T04:43:20.458Z,18.23
2019-01-29T04:48:21.979Z,27.30
2019-01-29T04:53:23.375Z,24.37
2019-01-29T04:58:24.715Z,28.92
2019-01-29T05:03:26.034Z,29.27
2019-01-29T05:08:27.444Z,30.37
2019-01-29T05:13:28.869Z,35.03
2019-01-29T05:18:32.073Z,33.33
2019-01-29T05:23:33.830Z,41.90
2019-01-29T05:28:35.170Z,30.70
2019-01-29T05:33:36.494Z,37.70
2019-01-29T05:38:37.819Z,36.25
2019-01-29T05:43:39.412Z,44.20
2019-01-29T05:48:41.060Z,34.75
2019-01-29T05:53:42.493Z,37.80
2019-01-29T05:58:43.962Z,36.20
2019-01-29T06:03:45.377Z,39.38
2019-01-29T06:08:46.667Z,47.60
2019-01-29T06:13:48.092Z,41.42
2019-01-29T06:18:49.581Z,44.05
2019-01-29T06:23:50.908Z,35.45
2019-01-29T06:28:52.190Z,51.75
2019-01-29T06:33:53.562Z,42.17
2019-01-29T06:38:54.905Z,43.68
2019-01-29T06:43:56.202Z,51.53
2019-01-29T06:48:57.503Z,41.40
2019-01-29T06:53:58.858Z,40.55
2019-01-29T06:59:00.213Z,36.68
2019-01-29T07:04:01.532Z,39.48
2019-01-29T07:09:07.097Z,35.10
2019-01-29T07:14:08.574Z,33.40
2019-01-29T07:24:22.237Z,38.98
2019-01-29T07:29:23.587Z,38.65
2019-01-29T07:34:25.003Z,35.75
2019-01-29T07:39:26.395Z,32.03
2019-01-29T07:44:27.726Z,35.20
2019-01-29T07:49:29.059Z,31.75
2019-01-29T07:54:33.341Z,34.78
2019-01-29T07:59:33.939Z,35.03
2019-01-29T08:04:35.302Z,38.10
2019-01-29T08:09:36.614Z,37.08
2019-01-29T08:14:37.955Z,34.45
2019-01-29T08:19:39.449Z,40.50
2019-01-29T08:24:40.817Z,39.67
2019-01-29T08:29:42.132Z,39.10
2019-01-29T08:34:43.445Z,38.00
2019-01-29T08:39:45.069Z,35.17
2019-01-29T08:44:46.472Z,36.25
2019-01-29T08:49:47.856Z,38.20
2019-01-29T08:54:49.115Z,33.50
2019-01-29T08:59:50.611Z,29.92
2019-01-29T09:04:51.961Z,29.48
2019-01-29T09:09:53.278Z,30.65
2019-01-29T09:14:54.621Z,31.00
2019-01-29T09:19:56.104Z,27.48
2019-01-29T09:24:57.433Z,22.90
2019-01-29T09:29:58.851Z,22.07
2019-01-29T09:35:00.260Z,24.32
2019-01-29T09:40:02.386Z,18.75
2019-01-29T09:45:08.654Z,19.60
2019-01-29T09:50:15.730Z,18.20
2019-01-29T09:55:28.800Z,16.90
2019-01-29T10:00:33.439Z,20.12
2019-01-29T10:05:34.834Z,17.55
2019-01-29T10:10:36.147Z,13.68
2019-01-29T10:15:39.381Z,16.65
2019-01-29T10:20:40.717Z,13.32
2019-01-29T10:25:42.113Z,13.10
2019-01-29T10:30:43.397Z,17.37
2019-01-29T10:35:44.741Z,17.67
2019-01-29T10:40:46.111Z,15.20
2019-01-29T10:45:47.490Z,15.38
2019-01-29T10:50:48.796Z,13.85
2019-01-29T10:55:50.119Z,13.62
2019-01-29T11:00:51.472Z,11.33
2019-01-29T11:05:52.929Z,10.38
2019-01-29T11:10:54.353Z,10.32
2019-01-29T11:15:55.792Z,10.82
2019-01-29T11:20:57.136Z,10.43
2019-01-29T11:25:59.503Z,9.48
2019-01-29T11:31:01.084Z,9.30
2019-01-29T11:36:02.517Z,10.03
2019-01-29T11:41:03.925Z,10.08
2019-01-29T11:46:05.442Z,8.83
2019-01-29T11:51:06.747Z,9.70
2019-01-29T11:56:08.056Z,10.15
2019-01-29T12:01:11.283Z,10.25
2019-01-29T12:06:12.584Z,9.85
2019-01-29T12:11:14.003Z,9.30
2019-01-29T12:16:15.398Z,9.08
2019-01-29T12:21:18.551Z,8.33
2019-01-29T12:26:19.932Z,9.00
2019-01-29T12:31:21.212Z,8.43
2019-01-29T12:36:22.801Z,8.65
2019-01-29T12:41:24.177Z,7.87
2019-01-29T12:46:25.547Z,7.72
2019-01-29T12:51:28.789Z,8.55
2019-01-29T12:56:30.086Z,9.13
2019-01-29T13:01:31.518Z,8.13
2019-01-29T13:06:32.953Z,7.75
2019-01-29T13:11:34.303Z,8.30
2019-01-29T13:16:35.604Z,7.10
2019-01-29T13:21:37.013Z,8.00
2019-01-29T13:26:38.337Z,7.62
2019-01-29T13:31:39.815Z,7.62
2019-01-29T13:36:41.129Z,6.83
2019-01-29T13:41:42.482Z,6.08
2019-01-29T13:46:45.322Z,7.17
2019-01-29T13:51:46.651Z,6.70
2019-01-29T13:56:48.080Z,7.28
2019-01-29T14:01:49.594Z,7.22
2019-01-29T14:06:50.893Z,7.15
2019-01-29T14:11:52.226Z,6.78
2019-01-29T14:16:53.593Z,8.40
2019-01-29T14:21:55.058Z,6.47
2019-01-29T14:26:56.661Z,6.72
2019-01-29T14:31:58.016Z,5.20
2019-01-29T14:36:59.389Z,5.72
2019-01-29T14:42:00.772Z,5.20
2019-01-29T14:47:02.924Z,5.92
2019-01-29T14:52:04.351Z,5.65
2019-01-29T14:57:06.896Z,5.85
2019-01-29T15:02:08.265Z,6.17
2019-01-29T15:07:10.484Z,6.15
2019-01-29T15:12:12.255Z,6.37
2019-01-29T15:17:24.621Z,5.85
2019-01-29T15:22:26.204Z,6.65
2019-01-29T15:27:27.559Z,6.22
2019-01-29T15:32:28.934Z,6.17
2019-01-29T15:37:30.295Z,6.40
2019-01-29T15:42:31.815Z,6.60
2019-01-29T15:47:33.900Z,7.22
2019-01-29T15:52:35.677Z,6.97
2019-01-29T15:57:37.249Z,6.90
2019-01-29T16:02:38.680Z,6.25
2019-01-29T16:07:40.873Z,6.58
2019-01-29T16:12:42.364Z,6.15
2019-01-29T16:17:43.913Z,6.42
2019-01-29T16:22:45.535Z,5.83
2019-01-29T16:27:46.836Z,6.28
2019-01-29T16:32:48.756Z,6.70
2019-01-29T16:37:51.263Z,6.75
2019-01-29T16:42:52.826Z,6.30
2019-01-29T16:47:54.596Z,7.85
2019-01-29T16:52:56.674Z,12.85
2019-01-29T16:57:58.041Z,122.58
2019-01-29T17:02:59.362Z,19.07
2019-01-29T17:08:00.667Z,19.95
2019-01-29T17:13:02.173Z,8.43
2019-01-29T17:18:07.253Z,26.07
2019-01-29T17:23:09.518Z,10.60
2019-01-29T17:28:11.530Z,12.45
2019-01-29T17:33:15.451Z,8.20
2019-01-29T17:38:16.748Z,11.97
2019-01-29T17:43:18.113Z,8.90
2019-01-29T17:48:19.551Z,8.58
2019-01-29T17:53:20.939Z,17.30
2019-01-29T17:58:22.472Z,9.23
2019-01-29T18:03:24.595Z,22.25
2019-01-29T18:08:26.131Z,17.60
2019-01-29T18:13:27.591Z,13.22
2019-01-29T18:18:31.924Z,12.88
2019-01-29T18:23:33.305Z,11.90
2019-01-29T18:28:35.035Z,11.10
2019-01-29T18:33:36.493Z,9.23
2019-01-29T18:38:46.494Z,9.05
2019-01-29T18:43:47.989Z,10.60
2019-01-29T18:48:49.542Z,11.70
2019-01-29T18:53:50.809Z,12.45
2019-01-29T18:58:52.210Z,39.15
2019-01-29T19:03:55.249Z,45.78
2019-01-29T19:08:57.977Z,44.18
2019-01-29T19:13:59.626Z,34.03
2019-01-29T19:19:01.131Z,77.82
2019-01-29T19:24:02.474Z,9.43
2019-01-29T19:29:06.422Z,8.10
2019-01-29T19:34:07.153Z,8.30
2019-01-29T19:39:08.561Z,8.70
2019-01-29T19:44:09.954Z,8.53
2019-01-29T19:49:11.450Z,7.97
2019-01-29T19:54:12.850Z,7.92
2019-01-29T19:59:14.157Z,7.10
2019-01-29T20:04:34.396Z,7.45
2019-01-29T20:09:35.845Z,7.80
2019-01-29T20:14:37.270Z,8.18
2019-01-29T20:19:38.769Z,8.55
2019-01-29T20:24:40.073Z,8.28
2019-01-29T20:29:42.181Z,8.43
2019-01-29T20:34:43.612Z,8.30
2019-01-29T20:39:45.066Z,9.15
2019-01-29T20:44:46.446Z,8.55
2019-01-29T20:49:48.223Z,8.13
2019-01-29T20:54:49.668Z,8.43
2019-01-29T20:59:50.972Z,8.33
2019-01-29T21:04:52.455Z,10.43
2019-01-29T21:09:53.745Z,10.45
2019-01-29T21:14:55.152Z,7.50
2019-01-29T21:19:56.516Z,14.78
2019-01-29T21:24:57.903Z,9.53
2019-01-29T21:29:59.244Z,7.53
2019-01-29T21:35:00.675Z,7.83
2019-01-29T21:40:09.065Z,8.83
2019-01-29T21:45:14.588Z,8.03
2019-01-29T21:50:32.150Z,7.92
2019-01-29T21:55:33.522Z,9.35
2019-01-29T22:00:40.936Z,7.65
2019-01-29T22:05:42.419Z,8.40
2019-01-29T22:10:43.721Z,7.50
2019-01-29T22:15:47.370Z,8.45
2019-01-29T22:20:48.603Z,8.95
2019-01-29T22:25:50.206Z,8.08
2019-01-29T22:30:51.491Z,7.78
2019-01-29T22:35:52.788Z,8.30
2019-01-29T22:40:54.152Z,7.95
2019-01-29T22:45:55.579Z,7.97
2019-01-29T22:50:56.910Z,9.83
2019-01-29T22:55:58.257Z,7.85
2019-01-29T23:01:26.559Z,7.45
2019-01-29T23:06:48.857Z,8.13
2019-01-29T23:11:50.251Z,7.47
2019-01-29T23:16:51.703Z,7.65
2019-01-29T23:21:53.003Z,8.13
2019-01-29T23:26:54.439Z,11.03
2019-01-29T23:31:56.000Z,8.58
2019-01-29T23:36:57.312Z,7.85
2019-01-29T23:41:58.723Z,8.78
2019-01-29T23:47:00.403Z,9.33
2019-01-29T23:52:01.934Z,9.23
2019-01-29T23:57:03.257Z,9.45
